createdAt,value
2022-09-01T00:02:10.745Z,13.90
2022-09-01T00:04:44.088Z,13.90
2022-09-01T00:07:38.005Z,13.90
2022-09-01T00:10:09.250Z,13.90
2022-09-01T00:12:38.440Z,13.80
2022-09-01T00:15:08.596Z,13.90
2022-09-01T00:17:37.183Z,13.80
2022-09-01T00:20:07.048Z,13.90
2022-09-01T00:22:36.826Z,13.90
2022-09-01T00:25:06.553Z,13.90
2022-09-01T00:27:35.149Z,13.90
2022-09-01T00:30:05.246Z,13.80
2022-09-01T00:32:33.814Z,13.80
2022-09-01T00:35:05.443Z,13.80
2022-09-01T00:37:33.998Z,13.80
2022-09-01T00:40:04.071Z,13.80
2022-09-01T00:42:32.596Z,13.80
2022-09-01T00:45:01.317Z,13.80
2022-09-01T00:47:31.336Z,13.70
2022-09-01T00:50:01.443Z,13.70
2022-09-01T00:52:34.306Z,13.80
2022-09-01T00:55:08.990Z,13.80
2022-09-01T00:57:37.853Z,13.70
2022-09-01T01:00:14.086Z,13.70
2022-09-01T01:02:45.231Z,13.60
2022-09-01T01:05:15.584Z,13.60
2022-09-01T01:07:47.998Z,13.60
2022-09-01T01:10:23.123Z,13.60
2022-09-01T01:12:52.106Z,13.80
2022-09-01T01:15:20.901Z,13.70
2022-09-01T01:17:49.267Z,13.50
2022-09-01T01:20:37.218Z,13.30
2022-09-01T01:23:16.103Z,13.20
2022-09-01T01:25:49.685Z,13.20
2022-09-01T01:28:21.165Z,13.30
2022-09-01T01:30:53.275Z,13.30
2022-09-01T01:33:23.510Z,13.40
2022-09-01T01:35:56.412Z,13.40
2022-09-01T01:38:26.640Z,13.40
2022-09-01T01:40:56.689Z,13.40
2022-09-01T01:43:26.548Z,13.50
2022-09-01T01:45:56.958Z,13.40
2022-09-01T01:48:25.381Z,13.50
2022-09-01T01:50:55.035Z,13.30
2022-09-01T01:53:23.692Z,13.20
2022-09-01T01:55:52.643Z,13.10
2022-09-01T01:58:24.637Z,12.90
2022-09-01T02:00:55.510Z,13.00
2022-09-01T02:03:26.383Z,13.10
2022-09-01T02:05:56.205Z,13.10
2022-09-01T02:08:26.259Z,12.90
2022-09-01T02:10:57.967Z,13.00
2022-09-01T02:13:31.438Z,12.90
2022-09-01T02:16:02.520Z,13.00
2022-09-01T02:18:36.106Z,12.90
2022-09-01T02:21:16.339Z,12.40
2022-09-01T02:23:44.922Z,12.20
2022-09-01T02:26:16.581Z,12.20
2022-09-01T02:28:55.509Z,12.40
2022-09-01T02:31:25.246Z,12.40
2022-09-01T02:33:54.469Z,12.30
2022-09-01T02:36:25.430Z,12.40
2022-09-01T02:38:56.661Z,12.40
2022-09-01T02:41:29.397Z,12.40
2022-09-01T02:44:02.324Z,12.40
2022-09-01T02:46:31.346Z,12.30
2022-09-01T02:49:00.730Z,12.40
2022-09-01T02:51:29.300Z,12.50
2022-09-01T02:53:58.027Z,12.50
2022-09-01T02:56:27.767Z,12.50
2022-09-01T02:58:58.285Z,12.50
2022-09-01T03:01:30.273Z,12.40
2022-09-01T03:04:02.840Z,12.50
2022-09-01T03:06:34.591Z,12.60
2022-09-01T03:09:06.493Z,12.70
2022-09-01T03:11:44.349Z,12.90
2022-09-01T03:14:15.456Z,13.00
2022-09-01T03:16:55.954Z,12.90
2022-09-01T03:19:24.535Z,12.90
2022-09-01T03:21:52.909Z,12.80
2022-09-01T03:24:24.275Z,12.80
2022-09-01T03:26:53.729Z,13.00
2022-09-01T03:29:24.740Z,13.10
2022-09-01T03:31:53.401Z,13.20
2022-09-01T03:34:40.961Z,13.10
2022-09-01T03:37:12.670Z,13.10
2022-09-01T03:39:41.228Z,13.00
2022-09-01T03:42:12.669Z,12.90
2022-09-01T03:44:45.405Z,12.50
2022-09-01T03:47:24.178Z,12.30
2022-09-01T03:49:52.675Z,12.40
2022-09-01T03:52:27.798Z,12.30
2022-09-01T03:54:56.479Z,12.40
2022-09-01T03:57:27.932Z,12.50
2022-09-01T04:00:05.219Z,12.60
2022-09-01T04:02:34.682Z,12.70
2022-09-01T04:05:08.659Z,12.80
2022-09-01T04:07:36.914Z,12.80
2022-09-01T04:10:05.880Z,13.00
2022-09-01T04:12:39.915Z,13.00
2022-09-01T04:15:14.078Z,12.90
2022-09-01T04:18:01.872Z,13.00
2022-09-01T04:20:40.817Z,13.10
2022-09-01T04:23:11.918Z,13.20
2022-09-01T04:25:42.265Z,13.20
2022-09-01T04:28:23.787Z,13.30
2022-09-01T04:30:56.976Z,13.40
2022-09-01T04:33:27.872Z,13.30
2022-09-01T04:35:56.648Z,13.40
2022-09-01T04:38:35.372Z,13.40
2022-09-01T04:41:06.611Z,13.30
2022-09-01T04:43:36.468Z,13.40
2022-09-01T04:46:09.312Z,13.30
2022-09-01T04:48:58.450Z,13.30
2022-09-01T04:51:37.247Z,13.40
2022-09-01T04:54:15.300Z,13.40
2022-09-01T04:56:51.864Z,13.40
2022-09-01T04:59:23.786Z,13.40
2022-09-01T05:02:03.361Z,13.40
2022-09-01T05:04:37.894Z,13.40
2022-09-01T05:07:11.975Z,13.50
2022-09-01T05:09:40.857Z,13.50
2022-09-01T05:12:22.310Z,13.50
2022-09-01T05:14:51.015Z,13.60
2022-09-01T05:17:33.896Z,13.70
2022-09-01T05:20:15.820Z,13.60
2022-09-01T05:22:59.360Z,13.60
2022-09-01T05:25:30.348Z,13.60
2022-09-01T05:27:58.608Z,13.50
2022-09-01T05:30:28.881Z,13.60
2022-09-01T05:33:12.723Z,13.80
2022-09-01T05:35:45.174Z,13.90
2022-09-01T05:39:00.882Z,13.90
2022-09-01T05:44:52.595Z,14.30
2022-09-01T05:47:21.739Z,14.30
2022-09-01T05:49:57.049Z,14.40
2022-09-01T05:52:26.885Z,14.20
2022-09-01T05:55:01.174Z,14.00
2022-09-01T05:57:36.585Z,13.90
2022-09-01T06:03:23.465Z,14.10
2022-09-01T06:06:00.133Z,14.20
2022-09-01T06:08:31.273Z,14.40
2022-09-01T06:11:01.827Z,14.70
2022-09-01T06:13:35.386Z,15.00
2022-09-01T06:16:05.263Z,15.10
2022-09-01T06:18:39.277Z,15.10
2022-09-01T06:21:20.743Z,15.20
2022-09-01T06:23:58.715Z,15.30
2022-09-01T06:26:37.595Z,15.00
2022-09-01T06:29:10.166Z,14.80
2022-09-01T06:31:40.531Z,14.40
2022-09-01T06:34:12.164Z,14.40
2022-09-01T06:49:57.829Z,14.90
2022-09-01T06:52:27.062Z,14.60
2022-09-01T06:54:56.045Z,14.90
2022-09-01T07:00:21.246Z,15.40
2022-09-01T07:02:54.949Z,15.60
2022-09-01T07:09:19.057Z,15.90
2022-09-01T07:17:54.372Z,23.90
2022-09-01T07:20:25.317Z,23.20
2022-09-01T07:23:10.988Z,23.70
2022-09-01T07:26:01.268Z,24.50
2022-09-01T07:28:39.877Z,24.50
2022-09-01T07:39:48.361Z,26.80
2022-09-01T07:45:27.143Z,26.70
2022-09-01T07:54:14.603Z,28.00
2022-09-01T07:56:44.633Z,28.20
2022-09-01T07:59:24.633Z,27.00
2022-09-01T08:01:53.836Z,26.90
2022-09-01T08:04:24.896Z,27.30
2022-09-01T08:07:03.170Z,27.50
2022-09-01T08:09:45.776Z,27.10
2022-09-01T08:12:33.612Z,25.80
2022-09-01T08:15:38.014Z,26.20
2022-09-01T08:17:59.031Z,27.30
2022-09-01T08:20:28.071Z,26.80
2022-09-01T08:26:31.458Z,23.40
2022-09-01T08:29:02.012Z,24.00
2022-09-01T08:31:37.449Z,26.10
2022-09-01T08:34:09.418Z,24.00
2022-09-01T08:37:09.041Z,25.60
2022-09-01T08:39:52.407Z,25.50
2022-09-01T08:42:49.143Z,23.80
2022-09-01T08:45:38.999Z,25.60
2022-09-01T08:51:25.880Z,25.20
2022-09-01T08:54:29.620Z,25.50
2022-09-01T09:00:55.067Z,23.00
2022-09-01T09:03:47.673Z,25.60
2022-09-01T09:06:30.444Z,23.80
2022-09-01T09:09:14.807Z,22.30
2022-09-01T09:12:48.977Z,21.80
2022-09-01T09:22:05.743Z,22.20
2022-09-01T09:24:59.853Z,22.40
2022-09-01T09:28:03.290Z,22.00
2022-09-01T09:30:57.979Z,21.40
2022-09-01T09:33:51.761Z,20.90
2022-09-01T09:36:39.288Z,21.10
2022-09-01T09:39:26.235Z,20.70
2022-09-01T09:42:31.245Z,21.00
2022-09-01T09:45:42.300Z,21.20
2022-09-01T09:48:50.706Z,21.30
2022-09-01T09:51:35.189Z,21.20
2022-09-01T09:54:19.597Z,21.30
2022-09-01T10:04:14.371Z,21.20
2022-09-01T10:06:49.126Z,21.00
2022-09-01T10:13:53.396Z,21.30
2022-09-01T10:16:38.397Z,21.20
2022-09-01T10:19:25.003Z,21.10
2022-09-01T10:22:06.473Z,21.00
2022-09-01T10:24:45.841Z,21.10
2022-09-01T10:31:49.241Z,21.50
2022-09-01T10:34:48.858Z,21.50
2022-09-01T10:38:04.750Z,21.10
2022-09-01T10:41:14.753Z,21.60
2022-09-01T10:44:03.070Z,21.50
2022-09-01T10:47:08.202Z,21.20
2022-09-01T10:50:18.769Z,21.50
2022-09-01T10:53:47.596Z,21.90
2022-09-01T10:57:09.338Z,22.10
2022-09-01T10:59:56.058Z,21.60
2022-09-01T11:02:46.365Z,22.10
2022-09-01T11:09:14.882Z,22.10
2022-09-01T11:12:10.325Z,22.10
2022-09-01T11:15:07.027Z,22.20
2022-09-01T11:18:08.410Z,22.20
2022-09-01T11:20:55.044Z,22.10
2022-09-01T11:23:31.873Z,22.40
2022-09-01T11:33:24.377Z,21.90
2022-09-01T11:36:36.938Z,21.80
2022-09-01T11:39:38.864Z,22.10
2022-09-01T11:42:32.836Z,22.40
2022-09-01T11:45:22.119Z,22.50
2022-09-01T11:48:41.646Z,22.30
2022-09-01T11:51:14.838Z,22.10
2022-09-01T11:54:16.903Z,21.90
2022-09-01T11:56:53.473Z,22.20
2022-09-01T11:59:56.384Z,22.50
2022-09-01T12:02:32.071Z,22.40
2022-09-01T12:05:36.011Z,22.90
2022-09-01T12:08:31.962Z,22.80
2022-09-01T12:17:09.850Z,22.30
2022-09-01T12:20:15.212Z,22.50
2022-09-01T12:23:13.539Z,22.90
2022-09-01T12:26:35.058Z,23.10
2022-09-01T12:29:30.166Z,23.30
2022-09-01T12:32:22.556Z,23.20
2022-09-01T12:35:29.727Z,23.20
2022-09-01T12:38:34.899Z,23.70
2022-09-01T12:41:58.206Z,23.90
2022-09-01T12:44:33.076Z,23.90
2022-09-01T12:47:08.838Z,23.80
2022-09-01T12:50:19.576Z,24.50
2022-09-01T12:53:08.425Z,24.30
2022-09-01T12:55:47.657Z,23.70
2022-09-01T12:58:25.731Z,23.60
2022-09-01T13:01:30.975Z,23.70
2022-09-01T13:04:30.208Z,23.50
2022-09-01T13:07:20.152Z,23.30
2022-09-01T13:09:56.420Z,23.30
2022-09-01T13:12:35.793Z,23.50
2022-09-01T13:15:25.281Z,23.40
2022-09-01T13:17:57.170Z,23.30
2022-09-01T13:20:26.627Z,23.10
2022-09-01T13:26:05.909Z,23.30
2022-09-01T13:28:38.864Z,23.60
2022-09-01T13:34:10.345Z,23.40
2022-09-01T13:40:19.942Z,23.40
2022-09-01T13:43:00.472Z,22.80
2022-09-01T13:45:42.835Z,22.90
2022-09-01T13:49:02.403Z,23.20
2022-09-01T13:54:57.371Z,22.90
2022-09-01T13:57:27.122Z,22.70
2022-09-01T14:00:30.206Z,22.80
2022-09-01T14:06:17.815Z,23.60
2022-09-01T14:09:02.120Z,24.10
2022-09-01T14:11:54.794Z,24.20
2022-09-01T14:17:30.217Z,24.10
2022-09-01T14:20:57.915Z,23.20
2022-09-01T14:23:34.018Z,23.30
2022-09-01T14:26:15.916Z,23.20
2022-09-01T14:32:27.267Z,23.20
2022-09-01T14:35:27.720Z,22.90
2022-09-01T14:38:30.629Z,23.20
2022-09-01T14:41:02.063Z,23.40
2022-09-01T14:44:00.935Z,23.40
2022-09-01T14:53:05.169Z,23.20
2022-09-01T14:55:56.907Z,22.80
2022-09-01T15:04:56.908Z,23.50
2022-09-01T15:13:37.579Z,23.10
2022-09-01T15:16:28.201Z,23.10
2022-09-01T15:19:03.474Z,22.90
2022-09-01T15:25:17.305Z,23.10
2022-09-01T15:28:17.808Z,22.90
2022-09-01T15:31:50.637Z,23.00
2022-09-01T15:34:41.147Z,23.10
2022-09-01T15:37:10.629Z,22.70
2022-09-01T15:39:44.527Z,22.50
2022-09-01T15:42:33.279Z,22.40
2022-09-01T15:45:02.164Z,22.50
2022-09-01T15:47:34.482Z,22.50
2022-09-01T15:53:18.178Z,22.20
2022-09-01T15:59:25.316Z,22.40
2022-09-01T16:01:54.849Z,22.40
2022-09-01T16:04:27.562Z,22.30
2022-09-01T16:06:57.085Z,22.20
2022-09-01T16:09:27.058Z,22.10
2022-09-01T16:11:55.500Z,22.20
2022-09-01T16:14:24.031Z,22.10
2022-09-01T16:17:00.038Z,22.20
2022-09-01T16:19:53.726Z,22.20
2022-09-01T16:22:27.559Z,22.10
2022-09-01T16:25:02.454Z,22.10
2022-09-01T16:27:34.428Z,22.10
2022-09-01T16:30:08.131Z,22.00
2022-09-01T16:32:36.866Z,21.90
2022-09-01T16:35:07.354Z,21.90
2022-09-01T16:37:53.512Z,21.90
2022-09-01T16:40:36.988Z,22.00
2022-09-01T16:43:11.746Z,21.90
2022-09-01T16:45:50.747Z,21.90
2022-09-01T16:48:25.820Z,21.80
2022-09-01T16:51:03.761Z,21.80
2022-09-01T16:53:47.149Z,21.80
2022-09-01T16:56:26.736Z,21.90
2022-09-01T16:59:03.816Z,21.70
2022-09-01T17:01:45.342Z,21.60
2022-09-01T17:04:30.327Z,21.40
2022-09-01T17:07:03.879Z,21.40
2022-09-01T17:09:35.736Z,21.40
2022-09-01T17:12:27.819Z,21.40
2022-09-01T17:15:00.375Z,21.50
2022-09-01T17:17:42.812Z,21.30
2022-09-01T17:20:14.355Z,21.30
2022-09-01T17:22:50.679Z,21.20
2022-09-01T17:25:29.298Z,21.10
2022-09-01T17:28:03.438Z,21.00
2022-09-01T17:30:36.326Z,21.00
2022-09-01T17:33:18.578Z,21.00
2022-09-01T17:36:00.135Z,20.90
2022-09-01T17:38:37.327Z,20.80
2022-09-01T17:41:19.247Z,20.80
2022-09-01T17:43:57.282Z,20.70
2022-09-01T17:46:34.435Z,20.70
2022-09-01T17:49:13.892Z,20.60
2022-09-01T17:51:53.644Z,20.60
2022-09-01T17:54:31.159Z,20.50
2022-09-01T17:57:11.005Z,20.50
2022-09-01T17:59:47.680Z,20.40
2022-09-01T18:02:38.922Z,20.30
2022-09-01T18:05:12.551Z,20.30
2022-09-01T18:07:57.164Z,20.30
2022-09-01T18:10:31.432Z,20.20
2022-09-01T18:13:03.487Z,20.10
2022-09-01T18:15:44.204Z,20.00
2022-09-01T18:18:35.493Z,20.00
2022-09-01T18:21:06.214Z,20.00
2022-09-01T18:23:40.722Z,19.90
2022-09-01T18:26:17.137Z,19.90
2022-09-01T18:28:45.559Z,19.80
2022-09-01T18:31:27.638Z,19.70
2022-09-01T18:34:06.421Z,19.70
2022-09-01T18:36:44.612Z,19.60
2022-09-01T18:39:21.799Z,19.60
2022-09-01T18:42:02.709Z,19.60
2022-09-01T18:44:44.906Z,19.50
2022-09-01T18:47:17.193Z,19.50
2022-09-01T18:49:57.256Z,19.40
2022-09-01T18:52:50.089Z,19.40
2022-09-01T18:55:25.939Z,19.30
2022-09-01T18:57:57.512Z,19.30
2022-09-01T19:00:30.860Z,19.30
2022-09-01T19:03:09.692Z,19.20
2022-09-01T19:05:54.362Z,19.20
2022-09-01T19:08:37.555Z,19.20
2022-09-01T19:11:12.298Z,19.20
2022-09-01T19:13:59.417Z,19.10
2022-09-01T19:16:42.880Z,19.10
2022-09-01T19:19:23.266Z,19.00
2022-09-01T19:21:55.990Z,19.00
2022-09-01T19:24:29.538Z,18.80
2022-09-01T19:27:02.785Z,18.80
2022-09-01T19:29:34.437Z,18.60
2022-09-01T19:32:08.164Z,18.50
2022-09-01T19:34:41.240Z,18.40
2022-09-01T19:37:16.090Z,18.40
2022-09-01T19:39:48.862Z,18.30
2022-09-01T19:42:31.634Z,18.20
2022-09-01T19:45:08.273Z,18.10
2022-09-01T19:47:43.290Z,18.10
2022-09-01T19:50:18.777Z,18.00
2022-09-01T19:52:55.260Z,18.00
2022-09-01T19:55:31.478Z,18.00
2022-09-01T19:58:05.962Z,18.00
2022-09-01T20:00:51.028Z,18.00
2022-09-01T20:03:23.316Z,17.90
2022-09-01T20:05:57.304Z,18.00
2022-09-01T20:08:33.615Z,18.00
2022-09-01T20:11:05.516Z,18.10
2022-09-01T20:13:57.361Z,18.10
2022-09-01T20:16:31.364Z,18.00
2022-09-01T20:19:04.883Z,18.00
2022-09-01T20:21:39.975Z,18.00
2022-09-01T20:24:15.371Z,17.90
2022-09-01T20:26:50.406Z,17.70
2022-09-01T20:29:27.459Z,17.70
2022-09-01T20:31:59.819Z,17.70
2022-09-01T20:34:34.257Z,17.60
2022-09-01T20:37:09.874Z,17.70
2022-09-01T20:39:59.631Z,17.50
2022-09-01T20:42:35.833Z,17.50
2022-09-01T20:45:15.383Z,17.40
2022-09-01T20:47:50.399Z,17.40
2022-09-01T20:50:20.954Z,17.40
2022-09-01T20:53:11.406Z,17.30
2022-09-01T20:55:46.432Z,17.20
2022-09-01T20:58:21.819Z,17.20
2022-09-01T21:00:55.323Z,17.10
2022-09-01T21:03:34.072Z,17.20
2022-09-01T21:06:09.938Z,17.10
2022-09-01T21:08:48.922Z,17.00
2022-09-01T21:11:37.431Z,17.00
2022-09-01T21:14:33.733Z,17.00
2022-09-01T21:17:14.788Z,17.00
2022-09-01T21:19:54.704Z,16.90
2022-09-01T21:22:23.336Z,16.90
2022-09-01T21:24:53.417Z,16.90
2022-09-01T21:27:24.407Z,16.80
2022-09-01T21:29:58.308Z,16.70
2022-09-01T21:32:29.183Z,16.70
2022-09-01T21:34:58.362Z,16.70
2022-09-01T21:37:28.439Z,16.70
2022-09-01T21:39:58.611Z,16.70
2022-09-01T21:42:29.516Z,16.60
2022-09-01T21:47:28.724Z,16.50
2022-09-01T21:49:57.387Z,16.50
2022-09-01T21:52:25.919Z,16.50
2022-09-01T21:54:54.502Z,16.40
2022-09-01T21:57:24.222Z,16.40
2022-09-01T21:59:52.657Z,16.40
2022-09-01T22:02:21.305Z,16.40
2022-09-01T22:04:49.996Z,16.30
2022-09-01T22:07:21.248Z,16.30
2022-09-01T22:09:50.379Z,16.30
2022-09-01T22:12:18.899Z,16.40
2022-09-01T22:14:48.583Z,16.30
2022-09-01T22:17:17.091Z,16.30
2022-09-01T22:19:45.448Z,16.20
2022-09-01T22:22:13.831Z,16.20
2022-09-01T22:24:42.364Z,16.20
2022-09-01T22:27:10.708Z,16.20
2022-09-01T22:29:39.643Z,16.20
2022-09-01T22:32:09.658Z,16.20
2022-09-01T22:34:37.987Z,16.20
2022-09-01T22:37:09.645Z,16.10
2022-09-01T22:39:38.593Z,16.10
2022-09-01T22:42:07.161Z,16.00
2022-09-01T22:44:35.506Z,15.90
2022-09-01T22:47:04.540Z,15.80
2022-09-01T22:49:34.290Z,15.60
2022-09-01T22:52:03.105Z,15.60
2022-09-01T22:54:32.270Z,15.60
2022-09-01T22:57:02.255Z,15.40
2022-09-01T22:59:30.620Z,15.10
2022-09-01T23:02:01.354Z,15.10
2022-09-01T23:04:32.163Z,14.80
2022-09-01T23:07:02.041Z,14.90
2022-09-01T23:09:30.837Z,15.00
2022-09-01T23:11:59.217Z,15.10
2022-09-01T23:14:28.503Z,14.90
2022-09-01T23:16:57.401Z,14.70
2022-09-01T23:19:25.889Z,14.40
2022-09-01T23:21:54.822Z,14.40
2022-09-01T23:24:25.020Z,14.40
2022-09-01T23:26:53.329Z,14.40
2022-09-01T23:29:22.471Z,14.30
2022-09-01T23:31:50.927Z,14.10
2022-09-01T23:34:19.763Z,13.90
2022-09-01T23:36:48.276Z,13.90
2022-09-01T23:39:16.860Z,14.00
2022-09-01T23:41:47.018Z,13.80
2022-09-01T23:44:16.104Z,13.80
2022-09-01T23:46:46.411Z,13.70
2022-09-01T23:49:19.881Z,13.80
2022-09-01T23:51:48.998Z,13.60
2022-09-01T23:54:17.761Z,13.60
2022-09-01T23:56:48.026Z,13.70
2022-09-01T23:59:17.837Z,13.60
